Time;durP1;ratioP1;P1;durP2;ratioP2;P2;SDS_P1;SDS_P2;PMS_P1;PMS_P2;Temp;Humidity;BMP_temperature;BMP_pressure;BME280_temperature;BME280_humidity;BME280_pressure;Samples;Min_cycle;Max_cycle;Signal;HPM_P1;HPM_P2
2021/12/02 00:00:22;;;;;;;0.40;0.40;;;;;;;5.99;66.84;96219.31;2566706;28;20519;-73
2021/12/02 00:01:54;;;;;;;1.55;0.43;;;;;;;5.89;67.15;96218.88;2567242;28;20078;-73
2021/12/02 00:03:10;;;;;;;1.90;0.60;;;;;;;5.86;67.14;96218.19;2567312;28;20055;-73
2021/12/02 00:04:27;;;;;;;1.95;0.57;;;;;;;5.86;67.19;96210.38;2567006;28;20448;-73
2021/12/02 00:05:43;;;;;;;0.60;0.60;;;;;;;5.90;66.76;96219.75;2567316;28;20417;-73
2021/12/02 00:06:58;;;;;;;0.63;0.45;;;;;;;5.89;67.47;96221.50;2567031;28;20078;-74
2021/12/02 00:08:14;;;;;;;0.40;0.40;;;;;;;5.88;67.03;96221.56;2567177;28;20501;-73
2021/12/02 00:09:30;;;;;;;0.57;0.55;;;;;;;5.84;67.09;96218.28;2567101;28;20822;-73
2021/12/02 00:10:46;;;;;;;1.00;0.50;;;;;;;5.80;67.55;96225.34;2567121;28;20540;-73
2021/12/02 00:12:02;;;;;;;0.77;0.60;;;;;;;5.81;67.28;96221.00;2567121;28;20089;-73
2021/12/02 00:13:23;;;;;;;0.65;0.50;;;;;;;5.79;67.56;96226.25;2566850;28;20059;-72
2021/12/02 00:14:49;;;;;;;0.40;0.40;;;;;;;5.81;67.77;96221.00;2567098;28;20047;-73
2021/12/02 00:16:21;;;;;;;0.63;0.40;;;;;;;5.76;67.82;96218.63;2567005;28;20068;-72
2021/12/02 00:17:39;;;;;;;0.77;0.40;;;;;;;5.80;67.80;96235.72;2567066;28;20082;-73
2021/12/02 00:22:09;;;;;;;1.55;0.43;;;;;;;5.69;68.73;96231.94;2567228;28;20058;-73
2021/12/02 00:23:50;;;;;;;0.98;0.68;;;;;;;5.69;68.39;96226.75;2566921;28;20515;-73
2021/12/02 00:25:06;;;;;;;0.60;0.50;;;;;;;5.73;68.70;96223.09;2559067;28;20058;-73
2021/12/02 00:26:22;;;;;;;1.52;0.52;;;;;;;5.75;68.39;96231.66;2567146;28;20057;-73
2021/12/02 00:27:39;;;;;;;1.00;0.75;;;;;;;5.71;68.80;96228.34;2568334;28;20078;-73
2021/12/02 00:28:57;;;;;;;0.65;0.43;;;;;;;5.69;68.76;96227.56;2568870;28;20572;-73
2021/12/02 00:30:12;;;;;;;0.40;0.40;;;;;;;5.71;68.77;96225.75;2568792;28;20046;-73
2021/12/02 00:31:31;;;;;;;1.75;0.77;;;;;;;5.74;68.59;96233.41;2568867;28;20460;-73
2021/12/02 00:32:47;;;;;;;0.60;0.55;;;;;;;5.73;68.73;96223.94;2568781;28;20047;-73
2021/12/02 00:34:09;;;;;;;0.50;0.50;;;;;;;5.74;68.66;96223.03;2568970;28;20039;-73
2021/12/02 00:35:24;;;;;;;1.00;0.52;;;;;;;5.74;68.90;96223.03;2569004;28;20058;-73
2021/12/02 00:36:41;;;;;;;0.50;0.50;;;;;;;5.77;68.59;96220.28;2568891;28;20047;-73
2021/12/02 00:37:58;;;;;;;0.40;0.40;;;;;;;5.79;68.72;96223.66;2568971;28;20054;-73
2021/12/02 00:39:17;;;;;;;0.65;0.60;;;;;;;5.80;68.95;96225.34;2568819;28;20151;-73
2021/12/02 00:40:34;;;;;;;0.63;0.60;;;;;;;5.85;68.61;96227.75;2568333;28;20051;-73
2021/12/02 00:41:50;;;;;;;2.38;0.43;;;;;;;5.87;68.62;96233.69;2568637;28;20059;-72
2021/12/02 00:43:05;;;;;;;0.60;0.60;;;;;;;5.88;68.55;96237.97;2568845;28;20093;-72
2021/12/02 00:44:21;;;;;;;0.70;0.70;;;;;;;5.92;68.42;96236.09;2568767;28;20105;-73
2021/12/02 00:45:39;;;;;;;0.60;0.47;;;;;;;5.91;68.68;96237.84;2568743;28;20051;-72
2021/12/02 00:46:55;;;;;;;0.60;0.60;;;;;;;5.91;68.89;96243.03;2568816;28;20074;-73
2021/12/02 00:48:13;;;;;;;0.88;0.68;;;;;;;5.87;69.03;96223.31;2568599;28;20448;-73
2021/12/02 00:49:30;;;;;;;0.88;0.60;;;;;;;5.92;68.73;96241.28;2568730;28;20453;-73
2021/12/02 00:50:48;;;;;;;1.25;0.70;;;;;;;5.97;68.78;96231.53;2568313;28;20093;-72
2021/12/02 00:52:05;;;;;;;1.38;0.60;;;;;;;6.01;68.75;96243.53;2568808;28;20059;-72
2021/12/02 00:53:23;;;;;;;2.50;0.70;;;;;;;6.01;69.06;96243.53;2568347;28;20818;-73
2021/12/02 00:54:41;;;;;;;1.55;0.65;;;;;;;6.00;69.35;96228.78;2568676;28;20069;-72
2021/12/02 00:56:01;;;;;;;0.70;0.60;;;;;;;6.02;69.66;96233.97;2568715;28;20194;-73
2021/12/02 00:57:17;;;;;;;0.40;0.40;;;;;;;5.96;70.20;96232.44;2568656;28;20082;-73
2021/12/02 00:58:33;;;;;;;0.95;0.60;;;;;;;5.96;70.35;96231.63;2568578;28;20448;-74
2021/12/02 00:59:49;;;;;;;0.80;0.60;;;;;;;5.96;70.27;96237.63;2568152;28;20085;-73
2021/12/02 01:01:07;;;;;;;0.57;0.52;;;;;;;5.95;70.14;96238.56;2568321;28;20557;-73
2021/12/02 01:02:23;;;;;;;0.60;0.60;;;;;;;5.92;70.63;96243.88;2568427;28;20042;-72
2021/12/02 01:03:39;;;;;;;0.57;0.57;;;;;;;5.89;71.31;96220.66;2568229;28;20061;-74
2021/12/02 01:04:55;;;;;;;0.40;0.40;;;;;;;5.85;71.66;96258.03;2568558;28;20512;-74
2021/12/02 01:06:11;;;;;;;0.60;0.50;;;;;;;5.86;71.36;96244.16;2568521;28;20078;-73
2021/12/02 01:07:27;;;;;;;1.05;0.65;;;;;;;5.85;71.75;96239.88;2568303;28;20062;-73
2021/12/02 01:08:42;;;;;;;3.53;0.77;;;;;;;5.84;71.45;96239.03;2568573;28;20489;-73
2021/12/02 01:09:58;;;;;;;0.40;0.40;;;;;;;5.83;71.79;96247.75;2568207;28;20047;-73
2021/12/02 01:11:14;;;;;;;0.70;0.70;;;;;;;5.85;71.24;96248.50;2568225;28;20141;-73
2021/12/02 01:12:29;;;;;;;0.50;0.50;;;;;;;5.86;71.58;96249.34;2568544;28;20147;-72
2021/12/02 01:13:46;;;;;;;3.20;0.73;;;;;;;5.86;71.63;96241.56;2568270;28;20051;-72
2021/12/02 01:15:04;;;;;;;0.40;0.40;;;;;;;5.86;71.83;96252.78;2568314;28;20042;-72
2021/12/02 01:16:21;;;;;;;0.60;0.50;;;;;;;5.88;71.64;96248.38;2568375;28;20066;-73
2021/12/02 01:17:37;;;;;;;0.40;0.40;;;;;;;5.86;71.70;96249.34;2568236;28;20477;-74
2021/12/02 01:18:53;;;;;;;0.40;0.40;;;;;;;5.89;71.13;96252.66;2568354;28;20153;-74
2021/12/02 01:20:09;;;;;;;0.63;0.52;;;;;;;5.91;70.90;96237.84;2568324;28;20046;-74
2021/12/02 01:21:27;;;;;;;0.50;0.50;;;;;;;5.92;70.67;96249.91;2568354;28;20050;-73
2021/12/02 01:22:43;;;;;;;1.13;0.70;;;;;;;5.94;70.61;96242.06;2568384;28;20085;-74
2021/12/02 01:24:01;;;;;;;0.30;0.20;;;;;;;5.92;71.07;96244.72;2557678;29;20047;-74
2021/12/02 01:25:19;;;;;;;0.50;0.50;;;;;;;5.93;71.19;96249.00;2562179;28;20543;-74
2021/12/02 01:26:35;;;;;;;0.40;0.40;;;;;;;5.92;71.02;96255.09;2568162;28;20053;-73
2021/12/02 01:27:51;;;;;;;0.60;0.50;;;;;;;5.90;71.15;96256.94;2568472;28;20046;-73
2021/12/02 01:29:11;;;;;;;0.40;0.40;;;;;;;5.88;71.85;96255.34;2568237;28;20050;-73
2021/12/02 01:30:30;;;;;;;1.02;0.60;;;;;;;5.84;73.04;96264.16;2568157;28;20524;-74
2021/12/02 01:31:49;;;;;;;1.33;0.57;;;;;;;5.82;73.86;96265.97;2568305;28;20564;-73
2021/12/02 01:33:06;;;;;;;0.88;0.57;;;;;;;5.73;75.15;96264.63;2568436;28;20078;-74
2021/12/02 01:34:24;;;;;;;0.50;0.40;;;;;;;5.65;76.04;96262.38;2568164;28;20169;-73
2021/12/02 01:35:42;;;;;;;0.55;0.55;;;;;;;5.52;77.21;96262.06;2568222;28;20051;-73
2021/12/02 01:37:00;;;;;;;0.60;0.50;;;;;;;5.41;78.04;96269.47;2568238;28;20082;-73
2021/12/02 01:38:16;;;;;;;0.55;0.50;;;;;;;5.33;79.18;96272.38;2567829;28;20070;-73
2021/12/02 01:39:32;;;;;;;0.85;0.60;;;;;;;5.25;79.15;96274.44;2567810;28;20055;-73
2021/12/02 01:40:48;;;;;;;0.65;0.50;;;;;;;5.18;80.00;96272.13;2567726;28;20081;-76
2021/12/02 01:42:06;;;;;;;2.13;0.70;;;;;;;5.17;80.36;96274.75;2568214;28;20042;-73
2021/12/02 01:43:43;;;;;;;0.60;0.50;;;;;;;5.13;80.28;96279.22;2568250;28;20137;-73
2021/12/02 01:44:58;;;;;;;0.60;0.60;;;;;;;5.13;79.93;96297.38;2567659;28;20078;-73
2021/12/02 01:46:20;;;;;;;0.80;0.70;;;;;;;5.12;80.63;96276.72;2568087;28;20586;-74
2021/12/02 01:47:44;;;;;;;0.80;0.43;;;;;;;5.07;79.98;96272.53;2568107;28;20050;-74
2021/12/02 01:49:06;;;;;;;0.50;0.50;;;;;;;5.05;80.12;96263.16;2568308;28;20065;-73
2021/12/02 01:50:24;;;;;;;0.57;0.55;;;;;;;5.04;80.26;96261.47;2568150;28;20413;-73
2021/12/02 01:51:49;;;;;;;0.43;0.40;;;;;;;5.06;79.59;96264.84;2568024;28;20094;-73
2021/12/02 01:53:06;;;;;;;0.90;0.70;;;;;;;5.06;79.31;96273.44;2568277;28;20043;-73
2021/12/02 01:54:25;;;;;;;2.35;0.60;;;;;;;5.05;79.42;96265.75;2568079;28;20448;-74
2021/12/02 01:55:43;;;;;;;0.63;0.50;;;;;;;4.98;79.29;96279.84;2567932;28;20047;-73
2021/12/02 01:57:07;;;;;;;0.40;0.40;;;;;;;5.00;78.93;96278.91;2568070;28;20057;-74
2021/12/02 01:58:26;;;;;;;0.50;0.43;;;;;;;5.00;78.70;96281.50;2568155;28;20058;-74
2021/12/02 01:59:51;;;;;;;0.30;0.30;;;;;;;5.01;78.09;96266.75;2567822;28;20126;-73
2021/12/02 02:01:12;;;;;;;0.57;0.50;;;;;;;4.98;77.91;96272.94;2568070;28;20055;-74
2021/12/02 02:02:30;;;;;;;0.30;0.30;;;;;;;4.99;77.29;96258.19;2568066;28;20064;-73
2021/12/02 02:03:49;;;;;;;0.45;0.45;;;;;;;4.98;77.01;96264.31;2567850;28;20574;-73
2021/12/02 02:05:11;;;;;;;0.40;0.40;;;;;;;5.00;76.29;96259.88;2567816;28;20081;-74
2021/12/02 02:06:37;;;;;;;1.33;0.43;;;;;;;4.98;76.25;96259.13;2567893;28;20051;-73
2021/12/02 02:08:21;;;;;;;0.45;0.45;;;;;;;4.97;76.43;96262.63;2567947;28;20408;-74
2021/12/02 02:09:37;;;;;;;0.63;0.43;;;;;;;5.00;75.85;96258.16;2567802;28;20082;-73
2021/12/02 02:10:52;;;;;;;0.20;0.20;;;;;;;4.99;75.95;96261.66;2567820;28;20066;-74
2021/12/02 02:12:10;;;;;;;0.50;0.50;;;;;;;4.95;75.37;96258.34;2567998;28;20500;-74
2021/12/02 02:13:26;;;;;;;0.70;0.45;;;;;;;4.94;75.65;96276.53;2567662;28;20086;-74
2021/12/02 02:14:43;;;;;;;0.70;0.40;;;;;;;4.93;75.60;96275.72;2567937;28;20051;-74
2021/12/02 02:15:59;;;;;;;0.43;0.30;;;;;;;4.94;75.32;96277.41;2567594;28;20042;-73
2021/12/02 02:17:40;;;;;;;0.60;0.40;;;;;;;4.95;75.15;96278.22;2568019;28;20065;-74
2021/12/02 02:18:53;;;;;;;0.95;0.30;;;;;;;4.97;74.54;96279.03;2567311;28;20054;-73
2021/12/02 02:20:12;;;;;;;0.73;0.35;;;;;;;4.97;74.23;96286.81;2567682;28;20097;-74
2021/12/02 02:21:27;;;;;;;1.02;0.30;;;;;;;4.95;74.44;96286.84;2567680;28;20516;-73
2021/12/02 02:22:43;;;;;;;0.50;0.50;;;;;;;4.97;74.19;96292.00;2567858;28;20042;-74
2021/12/02 02:24:00;;;;;;;0.80;0.40;;;;;;;4.97;73.85;96297.19;2567764;28;20182;-74
2021/12/02 02:25:18;;;;;;;0.35;0.35;;;;;;;4.93;73.97;96303.38;2567793;28;20050;-74
2021/12/02 02:26:35;;;;;;;0.45;0.45;;;;;;;4.93;73.59;96301.66;2567776;28;20047;-74
2021/12/02 02:27:50;;;;;;;0.20;0.20;;;;;;;4.94;73.40;96305.06;2567917;28;20462;-74
2021/12/02 02:29:09;;;;;;;0.45;0.40;;;;;;;5.00;73.24;96298.78;2567729;28;20046;-74
2021/12/02 02:30:25;;;;;;;0.85;0.40;;;;;;;5.02;73.04;96304.75;2567569;28;20066;-73
2021/12/02 02:31:43;;;;;;;0.30;0.30;;;;;;;5.04;72.81;96303.78;2567716;28;20058;-75
2021/12/02 02:32:58;;;;;;;0.30;0.30;;;;;;;5.07;72.97;96308.84;2556836;29;20047;-73
2021/12/02 02:34:14;;;;;;;0.20;0.20;;;;;;;5.11;72.61;96307.00;2561451;28;20547;-74
2021/12/02 02:35:30;;;;;;;0.32;0.30;;;;;;;5.15;72.01;96303.34;2567684;28;20059;-74
2021/12/02 02:36:52;;;;;;;1.13;0.30;;;;;;;5.18;71.84;96305.00;2567600;28;20051;-73
2021/12/02 02:38:08;;;;;;;0.20;0.20;;;;;;;5.19;72.03;96310.13;2567620;28;20100;-73
2021/12/02 02:39:25;;;;;;;0.40;0.30;;;;;;;5.20;71.86;96310.94;2567644;28;20129;-73
2021/12/02 02:40:44;;;;;;;0.30;0.30;;;;;;;5.21;72.08;96303.13;2567348;28;20318;-74
2021/12/02 02:42:02;;;;;;;0.28;0.28;;;;;;;5.25;71.08;96303.84;2556975;29;20051;-73
2021/12/02 02:43:25;;;;;;;0.20;0.20;;;;;;;5.25;71.08;96310.78;2561855;28;20481;-73
2021/12/02 02:44:41;;;;;;;0.20;0.20;;;;;;;5.27;71.45;96312.41;2567485;28;20054;-74
2021/12/02 02:45:57;;;;;;;0.60;0.25;;;;;;;5.25;70.93;96306.44;2567600;28;20058;-73
2021/12/02 02:47:12;;;;;;;0.30;0.30;;;;;;;5.27;70.46;96304.63;2567721;28;20499;-74
2021/12/02 02:48:30;;;;;;;0.30;0.30;;;;;;;5.30;70.03;96303.63;2567836;28;20042;-73
2021/12/02 02:49:48;;;;;;;0.30;0.30;;;;;;;5.27;70.54;96309.81;2566731;28;20149;-74
2021/12/02 02:51:03;;;;;;;0.30;0.30;;;;;;;5.27;70.59;96330.56;2567459;28;20046;-73
2021/12/02 02:52:19;;;;;;;0.38;0.38;;;;;;;5.26;70.96;96323.69;2567705;28;20051;-74
2021/12/02 02:53:35;;;;;;;0.20;0.20;;;;;;;5.23;71.25;96322.06;2567700;28;20058;-73
2021/12/02 02:54:51;;;;;;;0.75;0.40;;;;;;;5.23;70.94;96324.66;2567351;28;20117;-73
2021/12/02 02:56:13;;;;;;;0.40;0.40;;;;;;;5.15;71.47;96316.31;2567558;28;20169;-73
2021/12/02 02:57:36;;;;;;;;;;;;;;;5.09;71.79;96314.81;2568094;28;20069;-73
2021/12/02 03:00:17;;;;;;;1.90;0.40;;;;;;;4.97;72.25;96315.34;2556614;29;20054;-73
2021/12/02 03:02:57;;;;;;;0.80;0.60;;;;;;;4.92;72.36;96331.06;2567508;28;20046;-74
2021/12/02 03:04:34;;;;;;;0.68;0.52;;;;;;;4.94;72.08;96324.06;2567377;28;20055;-74
2021/12/02 03:08:53;;;;;;;0.40;0.40;;;;;;;4.92;72.06;96331.06;2567393;28;20054;-73
2021/12/02 03:10:32;;;;;;;0.22;0.20;;;;;;;4.93;72.00;96332.75;2567187;28;20054;-73
2021/12/02 03:11:51;;;;;;;0.30;0.30;;;;;;;4.99;71.87;96339.47;2567568;28;20660;-73
2021/12/02 03:13:19;;;;;;;0.45;0.30;;;;;;;4.99;71.96;96336.00;2567402;28;20062;-74
2021/12/02 03:17:30;;;;;;;0.77;0.50;;;;;;;5.06;71.98;96347.84;2567286;28;20061;-73
2021/12/02 03:18:46;;;;;;;0.43;0.30;;;;;;;5.04;71.98;96358.25;2556529;29;20070;-74
2021/12/02 03:20:03;;;;;;;0.65;0.30;;;;;;;5.04;71.83;96354.84;2560622;28;20073;-75
2021/12/02 03:21:22;;;;;;;0.85;0.60;;;;;;;5.07;71.85;96360.72;2567163;28;20560;-73
2021/12/02 03:22:39;;;;;;;0.60;0.40;;;;;;;5.09;71.65;96351.13;2566978;28;20046;-73
2021/12/02 03:23:59;;;;;;;0.50;0.50;;;;;;;5.11;71.69;96351.09;2567176;28;20058;-73
2021/12/02 03:25:15;;;;;;;0.40;0.40;;;;;;;5.07;71.68;96350.34;2567642;28;20494;-73
2021/12/02 03:26:32;;;;;;;1.85;0.43;;;;;;;5.08;71.43;96346.84;2567098;28;20559;-73
2021/12/02 03:27:47;;;;;;;0.50;0.50;;;;;;;5.11;71.48;96355.44;2567254;28;20047;-74
2021/12/02 03:29:04;;;;;;;0.47;0.40;;;;;;;5.09;71.93;96351.13;2567310;28;20583;-73
2021/12/02 03:30:19;;;;;;;0.52;0.50;;;;;;;5.11;71.50;96358.88;2566898;28;20051;-73
2021/12/02 03:31:35;;;;;;;0.63;0.47;;;;;;;5.11;71.54;96351.09;2567263;28;20469;-73
2021/12/02 03:32:51;;;;;;;1.70;0.57;;;;;;;5.14;71.59;96361.31;2567329;28;20050;-73
2021/12/02 03:34:07;;;;;;;0.80;0.60;;;;;;;5.17;71.71;96350.84;2567431;28;20059;-73
2021/12/02 03:35:23;;;;;;;3.40;1.25;;;;;;;5.12;71.69;96354.53;2567415;28;20098;-73
2021/12/02 03:36:39;;;;;;;3.75;1.30;;;;;;;5.15;71.03;96355.22;2567237;28;21130;-73
2021/12/02 03:37:54;;;;;;;2.35;1.10;;;;;;;5.16;71.22;96354.31;2567336;28;20058;-73
2021/12/02 03:39:11;;;;;;;2.55;0.95;;;;;;;5.18;70.68;96360.31;2556324;28;20609;-74
2021/12/02 03:40:27;;;;;;;0.70;0.60;;;;;;;5.18;70.74;96352.53;2560575;28;20093;-74
2021/12/02 03:41:43;;;;;;;0.70;0.55;;;;;;;5.20;70.68;96355.91;2567100;28;20053;-74
2021/12/02 03:42:59;;;;;;;1.02;0.57;;;;;;;5.21;70.48;96359.34;2567318;28;20486;-73
2021/12/02 03:44:14;;;;;;;0.50;0.50;;;;;;;5.18;70.41;96356.88;2567139;28;20679;-73
2021/12/02 03:45:32;;;;;;;0.50;0.30;;;;;;;5.19;70.86;96359.41;2567252;28;20070;-73
2021/12/02 03:46:49;;;;;;;0.68;0.50;;;;;;;5.17;70.40;96366.41;2567078;28;20057;-74
2021/12/02 03:48:04;;;;;;;0.50;0.50;;;;;;;5.17;70.40;96369.00;2556148;29;20055;-73
2021/12/02 03:49:20;;;;;;;0.68;0.35;;;;;;;5.19;70.25;96362.00;2560629;28;20051;-73
2021/12/02 03:50:36;;;;;;;0.82;0.47;;;;;;;5.22;70.19;96364.47;2567213;28;20082;-73
2021/12/02 03:51:52;;;;;;;0.45;0.38;;;;;;;5.20;70.18;96365.44;2567385;28;20424;-73
2021/12/02 03:53:07;;;;;;;2.75;0.40;;;;;;;5.22;69.85;96364.47;2566952;28;20050;-73
2021/12/02 03:54:23;;;;;;;0.93;0.47;;;;;;;5.22;69.76;96371.41;2566933;28;20070;-73
2021/12/02 03:55:39;;;;;;;0.63;0.52;;;;;;;5.21;69.96;96373.16;2567029;28;20047;-73
2021/12/02 03:56:54;;;;;;;1.65;0.60;;;;;;;5.19;70.13;96379.31;2567262;28;20055;-74
2021/12/02 03:58:10;;;;;;;0.60;0.60;;;;;;;5.20;69.83;96373.22;2567174;28;20444;-73
2021/12/02 03:59:26;;;;;;;0.73;0.40;;;;;;;5.19;70.21;96376.72;2567087;28;20061;-73
2021/12/02 04:00:41;;;;;;;1.95;0.40;;;;;;;5.20;69.89;96375.81;2566824;28;20054;-73
2021/12/02 04:01:57;;;;;;;0.90;0.55;;;;;;;5.21;69.81;96377.50;2556369;28;20044;-74
2021/12/02 04:03:12;;;;;;;0.50;0.38;;;;;;;5.20;69.80;96374.06;2562747;28;20070;-74
2021/12/02 04:04:28;;;;;;;0.20;0.20;;;;;;;5.20;69.63;96368.88;2569020;28;20063;-73
2021/12/02 04:05:44;;;;;;;1.55;0.40;;;;;;;5.21;69.72;96372.31;2568944;28;20061;-73
2021/12/02 04:06:59;;;;;;;0.82;0.77;;;;;;;5.20;69.69;96371.47;2569064;28;20114;-73
2021/12/02 04:08:16;;;;;;;1.35;0.40;;;;;;;5.19;69.74;96380.16;2569104;28;20050;-73
2021/12/02 04:09:39;;;;;;;1.20;0.65;;;;;;;5.16;69.99;96375.06;2568781;28;20051;-74
2021/12/02 04:11:01;;;;;;;1.30;0.40;;;;;;;5.16;69.14;96371.66;2568799;28;20133;-73
2021/12/02 04:12:58;;;;;;;0.40;0.40;;;;;;;5.18;70.13;96368.09;2569179;28;20552;-73
2021/12/02 04:15:22;;;;;;;0.77;0.52;;;;;;;5.14;69.46;96376.88;2568536;28;20520;-73
2021/12/02 04:16:39;;;;;;;1.45;0.70;;;;;;;5.13;69.89;96388.19;2568693;28;20474;-73
2021/12/02 04:17:55;;;;;;;0.20;0.20;;;;;;;5.13;69.86;96375.22;2568818;28;20468;-73
2021/12/02 04:19:11;;;;;;;0.50;0.50;;;;;;;5.12;69.74;96388.25;2569054;28;20042;-73
2021/12/02 04:20:27;;;;;;;2.15;0.55;;;;;;;5.09;69.70;96379.66;2568555;28;20051;-73
2021/12/02 04:21:43;;;;;;;1.10;0.80;;;;;;;5.08;70.02;96377.16;2568801;28;20058;-73
2021/12/02 04:22:59;;;;;;;2.83;0.77;;;;;;;5.11;70.29;96387.41;2568944;28;20050;-73
2021/12/02 04:24:14;;;;;;;0.93;0.60;;;;;;;5.06;70.30;96386.75;2568943;28;20050;-73
2021/12/02 04:25:30;;;;;;;1.30;0.57;;;;;;;5.04;70.52;96378.19;2568784;28;20086;-73
2021/12/02 04:26:46;;;;;;;0.50;0.50;;;;;;;5.01;70.81;96386.06;2568907;28;20544;-73
2021/12/02 04:28:02;;;;;;;1.23;0.80;;;;;;;5.01;71.38;96384.31;2568846;28;20074;-73
2021/12/02 04:29:18;;;;;;;0.50;0.50;;;;;;;4.99;71.31;96393.06;2568709;28;20145;-73
2021/12/02 04:30:33;;;;;;;0.45;0.45;;;;;;;4.98;71.32;96397.41;2568662;28;20059;-75
2021/12/02 04:31:49;;;;;;;0.80;0.70;;;;;;;4.92;71.48;96392.44;2568743;28;20051;-73
2021/12/02 04:33:04;;;;;;;0.82;0.57;;;;;;;4.90;71.35;96391.66;2568858;28;20088;-73
2021/12/02 04:34:21;;;;;;;0.45;0.40;;;;;;;4.89;71.65;96392.56;2568783;28;20058;-73
2021/12/02 04:35:37;;;;;;;1.77;0.75;;;;;;;4.88;71.87;96396.91;2568204;28;20055;-73
2021/12/02 04:36:52;;;;;;;1.48;0.75;;;;;;;4.90;71.72;96400.31;2568076;28;20050;-74
2021/12/02 04:38:08;;;;;;;1.80;1.02;;;;;;;4.86;71.73;96403.91;2567477;28;20494;-74
2021/12/02 04:39:23;;;;;;;0.80;0.70;;;;;;;4.87;72.05;96403.00;2567167;28;20051;-74
2021/12/02 04:40:40;;;;;;;1.98;0.45;;;;;;;4.90;72.18;96400.31;2567896;28;20165;-73
2021/12/02 04:41:56;;;;;;;1.02;0.52;;;;;;;4.88;72.11;96406.44;2568580;28;20567;-74
2021/12/02 04:43:12;;;;;;;0.70;0.50;;;;;;;4.83;72.66;96411.78;2568297;28;20067;-73
2021/12/02 04:44:27;;;;;;;0.60;0.60;;;;;;;4.82;72.62;96407.53;2568858;28;20152;-73
2021/12/02 04:45:43;;;;;;;0.55;0.55;;;;;;;4.80;72.77;96406.75;2568110;28;20042;-73
2021/12/02 04:46:58;;;;;;;0.85;0.70;;;;;;;4.81;72.74;96409.25;2568316;28;20059;-74
2021/12/02 04:48:15;;;;;;;0.90;0.52;;;;;;;4.80;73.22;96414.50;2567966;28;20459;-74
2021/12/02 04:49:30;;;;;;;0.82;0.63;;;;;;;4.73;73.47;96416.50;2567668;28;20145;-74
2021/12/02 04:50:47;;;;;;;2.03;0.70;;;;;;;4.62;74.14;96416.91;2567292;28;20042;-74
2021/12/02 04:52:03;;;;;;;0.70;0.70;;;;;;;4.62;74.37;96416.91;2567647;28;20118;-75
2021/12/02 04:53:19;;;;;;;0.63;0.60;;;;;;;4.60;74.19;96423.84;2568187;28;20055;-74
2021/12/02 04:54:34;;;;;;;0.80;0.70;;;;;;;4.56;74.61;96422.28;2566725;28;20071;-74
2021/12/02 04:55:50;;;;;;;2.75;0.50;;;;;;;4.49;75.02;96423.44;2567583;28;20440;-74
2021/12/02 04:57:06;;;;;;;0.63;0.40;;;;;;;4.48;75.27;96427.75;2568640;28;21393;-74
2021/12/02 04:58:21;;;;;;;2.20;0.70;;;;;;;4.45;75.75;96421.81;2567788;28;20125;-74
2021/12/02 04:59:37;;;;;;;1.10;0.80;;;;;;;4.41;75.65;96417.66;2568446;28;20051;-73
2021/12/02 05:00:53;;;;;;;0.88;0.68;;;;;;;4.44;75.50;96417.53;2567453;28;20055;-74
2021/12/02 05:02:08;;;;;;;0.52;0.50;;;;;;;4.40;75.76;96424.59;2567896;28;20050;-74
2021/12/02 05:03:25;;;;;;;1.48;0.70;;;;;;;4.41;75.75;96422.84;2568085;28;20047;-74
2021/12/02 05:04:40;;;;;;;2.83;0.70;;;;;;;4.41;75.80;96430.63;2568138;28;20066;-73
2021/12/02 05:05:56;;;;;;;1.40;1.10;;;;;;;4.40;75.72;96423.75;2568046;28;20504;-74
2021/12/02 05:07:12;;;;;;;0.75;0.60;;;;;;;4.39;75.73;96417.72;2567588;28;20046;-74
2021/12/02 05:08:27;;;;;;;2.53;0.98;;;;;;;4.41;75.77;96428.03;2567366;28;20043;-73
2021/12/02 05:09:43;;;;;;;1.58;1.10;;;;;;;4.34;76.02;96427.41;2567048;28;20146;-74
2021/12/02 05:10:58;;;;;;;1.00;0.80;;;;;;;4.32;76.12;96422.25;2566405;28;20421;-73
2021/12/02 05:12:14;;;;;;;2.05;0.60;;;;;;;4.32;76.49;96427.44;2567378;28;20051;-73
2021/12/02 05:13:29;;;;;;;3.50;0.80;;;;;;;4.31;76.65;96428.34;2567201;28;20043;-73
2021/12/02 05:14:45;;;;;;;5.25;0.93;;;;;;;4.31;76.85;96436.13;2567891;28;20513;-74
2021/12/02 05:16:01;;;;;;;0.85;0.60;;;;;;;4.27;77.05;96431.94;2567587;28;20074;-74
2021/12/02 05:17:16;;;;;;;1.05;0.70;;;;;;;4.24;76.72;96432.91;2567541;28;20043;-73
2021/12/02 05:18:32;;;;;;;0.98;0.73;;;;;;;4.23;76.92;96433.78;2567339;28;20038;-74
2021/12/02 05:19:47;;;;;;;2.33;1.13;;;;;;;4.23;76.70;96438.16;2568092;28;20442;-74
2021/12/02 05:21:03;;;;;;;1.17;0.80;;;;;;;4.27;76.51;96439.72;2567336;28;20441;-73
2021/12/02 05:22:18;;;;;;;1.10;0.75;;;;;;;4.19;76.84;96437.41;2567884;28;20051;-74
2021/12/02 05:23:34;;;;;;;1.88;0.85;;;;;;;4.21;76.26;96430.41;2567788;28;20171;-74
2021/12/02 05:24:50;;;;;;;1.80;1.00;;;;;;;4.23;76.33;96435.56;2567680;28;20043;-74
2021/12/02 05:26:05;;;;;;;1.23;0.70;;;;;;;4.20;76.74;96435.69;2567671;28;20125;-74
2021/12/02 05:27:21;;;;;;;1.48;0.85;;;;;;;4.17;76.66;96435.75;2567587;28;20098;-74
2021/12/02 05:28:37;;;;;;;1.48;0.95;;;;;;;4.20;76.96;96433.91;2567353;28;20481;-74
2021/12/02 05:29:52;;;;;;;1.90;0.75;;;;;;;4.17;76.87;96438.34;2568004;28;20379;-74
2021/12/02 05:31:08;;;;;;;1.23;0.65;;;;;;;4.17;77.13;96435.75;2567853;28;20049;-74
2021/12/02 05:32:23;;;;;;;1.38;0.90;;;;;;;4.15;76.93;96435.84;2566939;28;20078;-73
2021/12/02 05:33:39;;;;;;;0.80;0.80;;;;;;;4.16;77.02;96441.84;2568244;28;20138;-74
2021/12/02 05:34:54;;;;;;;1.05;0.68;;;;;;;4.16;76.98;96436.66;2568005;28;20113;-74
2021/12/02 05:36:14;;;;;;;1.02;0.93;;;;;;;4.16;77.00;96442.69;2567154;28;20057;-76
2021/12/02 05:37:29;;;;;;;1.67;1.10;;;;;;;4.17;77.01;96443.53;2567689;28;20050;-73
2021/12/02 05:38:45;;;;;;;1.80;0.98;;;;;;;4.16;76.60;96436.66;2566653;28;20097;-73
2021/12/02 05:40:01;;;;;;;0.68;0.55;;;;;;;4.15;76.72;96446.19;2566972;28;20524;-74
2021/12/02 05:41:17;;;;;;;0.88;0.75;;;;;;;4.12;75.88;96432.50;2566105;28;20059;-73
2021/12/02 05:42:33;;;;;;;1.70;0.40;;;;;;;4.08;76.48;96445.56;2567610;28;20142;-73
2021/12/02 05:43:48;;;;;;;0.40;0.40;;;;;;;4.05;75.42;96439.63;2567311;28;20047;-74
2021/12/02 05:45:04;;;;;;;0.77;0.43;;;;;;;4.03;75.57;96450.03;2567942;28;20159;-74
2021/12/02 05:46:20;;;;;;;0.40;0.40;;;;;;;4.01;75.61;96441.47;2567769;28;20481;-74
2021/12/02 05:47:36;;;;;;;1.40;0.40;;;;;;;4.00;75.12;96434.59;2567978;28;20128;-74
2021/12/02 05:48:51;;;;;;;0.45;0.45;;;;;;;3.99;74.99;96432.09;2568231;28;20097;-74
2021/12/02 05:50:08;;;;;;;0.57;0.52;;;;;;;4.00;75.10;96428.59;2568027;28;20054;-74
2021/12/02 05:51:24;;;;;;;0.95;0.68;;;;;;;3.98;75.06;96435.53;2567974;28;20097;-74
2021/12/02 05:52:39;;;;;;;0.85;0.47;;;;;;;4.03;74.86;96444.84;2568231;28;20460;-74
2021/12/02 05:53:55;;;;;;;0.55;0.40;;;;;;;4.01;74.01;96433.69;2568140;28;20082;-74
2021/12/02 05:55:10;;;;;;;0.30;0.30;;;;;;;4.02;74.35;96437.16;2567944;28;20074;-75
2021/12/02 05:56:26;;;;;;;1.73;0.55;;;;;;;4.00;74.62;96442.38;2568105;28;20055;-75
2021/12/02 05:57:42;;;;;;;0.40;0.40;;;;;;;4.03;74.65;96439.66;2567923;28;20054;-74
2021/12/02 05:58:57;;;;;;;0.47;0.30;;;;;;;4.03;74.35;96444.03;2568146;28;20042;-74
2021/12/02 06:00:14;;;;;;;0.50;0.50;;;;;;;4.04;74.29;96440.53;2567586;28;20050;-74
2021/12/02 06:01:29;;;;;;;0.40;0.40;;;;;;;4.05;74.55;96437.91;2567162;28;20406;-74
2021/12/02 06:02:45;;;;;;;0.93;0.43;;;;;;;4.05;74.55;96448.25;2567986;28;20062;-74
2021/12/02 06:04:01;;;;;;;0.43;0.38;;;;;;;4.03;74.57;96457.78;2556975;29;20102;-74
2021/12/02 06:05:20;;;;;;;0.77;0.47;;;;;;;4.04;74.63;96458.66;2561208;28;20047;-75
2021/12/02 06:06:36;;;;;;;0.40;0.40;;;;;;;4.02;74.15;96468.22;2564535;28;20817;-74
2021/12/02 06:07:56;;;;;;;0.30;0.30;;;;;;;4.00;74.38;96465.66;2566825;28;20412;-74
2021/12/02 06:09:12;;;;;;;0.35;0.35;;;;;;;4.04;74.57;96472.44;2567427;28;20082;-74
2021/12/02 06:10:28;;;;;;;0.82;0.50;;;;;;;4.04;74.71;96472.44;2567600;28;20061;-74
2021/12/02 06:11:45;;;;;;;0.65;0.28;;;;;;;4.00;74.54;96467.44;2567679;28;20390;-74
2021/12/02 06:13:00;;;;;;;0.30;0.30;;;;;;;3.99;74.18;96474.34;2567870;28;20058;-80
2021/12/02 06:14:16;;;;;;;0.50;0.40;;;;;;;3.96;74.17;96470.09;2557306;29;20482;-74
2021/12/02 06:15:32;;;;;;;1.10;0.40;;;;;;;3.97;74.09;96470.97;2560355;28;20051;-74
2021/12/02 06:16:49;;;;;;;0.73;0.40;;;;;;;3.95;73.83;96476.19;2565413;28;20560;-74
2021/12/02 06:18:04;;;;;;;0.20;0.20;;;;;;;3.95;73.93;96471.00;2565231;28;20081;-73
2021/12/02 06:19:20;;;;;;;0.20;0.20;;;;;;;3.98;73.84;96472.66;2564865;28;20059;-74
2021/12/02 06:20:35;;;;;;;0.32;0.30;;;;;;;3.95;73.65;96480.53;2563777;28;20046;-73
2021/12/02 06:21:51;;;;;;;0.20;0.20;;;;;;;3.96;73.67;96479.63;2565039;28;20059;-73